sensor_id;sensor_type;location;lat;lon;timestamp;P1;durP1;ratioP1;P2;durP2;ratioP2
65636;SDS011;52327;42.622;23.316;2023-12-20T00:00:58;0.20;;;0.20;;
65636;SDS011;52327;42.622;23.316;2023-12-20T00:03:25;0.45;;;0.45;;
65636;SDS011;52327;42.622;23.316;2023-12-20T00:05:51;0.57;;;0.28;;
65636;SDS011;52327;42.622;23.316;2023-12-20T00:08:16;0.10;;;0.10;;
65636;SDS011;52327;42.622;23.316;2023-12-20T00:10:44;0.52;;;0.52;;
65636;SDS011;52327;42.622;23.316;2023-12-20T00:13:17;0.10;;;0.10;;
65636;SDS011;52327;42.622;23.316;2023-12-20T00:15:45;0.10;;;0.10;;
65636;SDS011;52327;42.622;23.316;2023-12-20T00:18:11;0.30;;;0.30;;
65636;SDS011;52327;42.622;23.316;2023-12-20T00:20:36;0.20;;;0.20;;
65636;SDS011;52327;42.622;23.316;2023-12-20T00:23:02;0.20;;;0.20;;
65636;SDS011;52327;42.622;23.316;2023-12-20T00:25:34;0.20;;;0.20;;
65636;SDS011;52327;42.622;23.316;2023-12-20T00:28:00;0.28;;;0.28;;
65636;SDS011;52327;42.622;23.316;2023-12-20T00:30:25;0.25;;;0.25;;
65636;SDS011;52327;42.622;23.316;2023-12-20T00:32:51;0.32;;;0.32;;
65636;SDS011;52327;42.622;23.316;2023-12-20T00:35:21;0.25;;;0.25;;
65636;SDS011;52327;42.622;23.316;2023-12-20T00:37:47;0.40;;;0.40;;
65636;SDS011;52327;42.622;23.316;2023-12-20T00:40:12;0.30;;;0.30;;
65636;SDS011;52327;42.622;23.316;2023-12-20T00:42:40;0.10;;;0.10;;
65636;SDS011;52327;42.622;23.316;2023-12-20T00:45:06;7.30;;;0.73;;
65636;SDS011;52327;42.622;23.316;2023-12-20T00:47:32;0.30;;;0.30;;
65636;SDS011;52327;42.622;23.316;2023-12-20T00:49:57;0.25;;;0.25;;
65636;SDS011;52327;42.622;23.316;2023-12-20T00:52:23;0.60;;;0.60;;
65636;SDS011;52327;42.622;23.316;2023-12-20T00:54:49;0.20;;;0.20;;
65636;SDS011;52327;42.622;23.316;2023-12-20T00:57:17;0.22;;;0.22;;
65636;SDS011;52327;42.622;23.316;2023-12-20T00:59:42;0.28;;;0.28;;
65636;SDS011;52327;42.622;23.316;2023-12-20T01:02:08;0.75;;;0.75;;
65636;SDS011;52327;42.622;23.316;2023-12-20T01:04:36;0.20;;;0.20;;
65636;SDS011;52327;42.622;23.316;2023-12-20T01:07:03;0.10;;;0.10;;
65636;SDS011;52327;42.622;23.316;2023-12-20T01:09:29;0.20;;;0.20;;
65636;SDS011;52327;42.622;23.316;2023-12-20T01:11:54;4.72;;;1.27;;
65636;SDS011;52327;42.622;23.316;2023-12-20T01:14:20;0.30;;;0.30;;
65636;SDS011;52327;42.622;23.316;2023-12-20T01:16:45;0.20;;;0.20;;
65636;SDS011;52327;42.622;23.316;2023-12-20T01:19:11;0.20;;;0.20;;
65636;SDS011;52327;42.622;23.316;2023-12-20T01:21:36;1.42;;;0.35;;
65636;SDS011;52327;42.622;23.316;2023-12-20T01:24:04;0.45;;;0.45;;
65636;SDS011;52327;42.622;23.316;2023-12-20T01:26:30;0.15;;;0.15;;
65636;SDS011;52327;42.622;23.316;2023-12-20T01:28:57;0.15;;;0.15;;
65636;SDS011;52327;42.622;23.316;2023-12-20T01:31:26;0.30;;;0.30;;
65636;SDS011;52327;42.622;23.316;2023-12-20T01:33:52;0.55;;;0.50;;
65636;SDS011;52327;42.622;23.316;2023-12-20T01:36:18;0.65;;;0.65;;
65636;SDS011;52327;42.622;23.316;2023-12-20T01:38:43;1.10;;;0.80;;
65636;SDS011;52327;42.622;23.316;2023-12-20T01:41:09;2.58;;;2.05;;
65636;SDS011;52327;42.622;23.316;2023-12-20T01:43:34;1.00;;;1.00;;
65636;SDS011;52327;42.622;23.316;2023-12-20T01:45:59;6.03;;;1.33;;
65636;SDS011;52327;42.622;23.316;2023-12-20T01:48:25;1.77;;;1.23;;
65636;SDS011;52327;42.622;23.316;2023-12-20T01:50:52;0.63;;;0.63;;
65636;SDS011;52327;42.622;23.316;2023-12-20T01:53:23;0.30;;;0.30;;
65636;SDS011;52327;42.622;23.316;2023-12-20T01:55:50;0.20;;;0.20;;
65636;SDS011;52327;42.622;23.316;2023-12-20T01:58:23;0.38;;;0.30;;
65636;SDS011;52327;42.622;23.316;2023-12-20T02:00:50;1.13;;;0.75;;
65636;SDS011;52327;42.622;23.316;2023-12-20T02:03:16;0.47;;;0.47;;
65636;SDS011;52327;42.622;23.316;2023-12-20T02:05:42;1.10;;;1.00;;
65636;SDS011;52327;42.622;23.316;2023-12-20T02:08:09;1.05;;;0.75;;
65636;SDS011;52327;42.622;23.316;2023-12-20T02:10:35;0.30;;;0.30;;
65636;SDS011;52327;42.622;23.316;2023-12-20T02:13:00;0.38;;;0.38;;
65636;SDS011;52327;42.622;23.316;2023-12-20T02:15:29;0.30;;;0.30;;
65636;SDS011;52327;42.622;23.316;2023-12-20T02:17:55;0.52;;;0.52;;
65636;SDS011;52327;42.622;23.316;2023-12-20T02:20:20;0.20;;;0.20;;
65636;SDS011;52327;42.622;23.316;2023-12-20T02:22:46;0.43;;;0.43;;
65636;SDS011;52327;42.622;23.316;2023-12-20T02:25:11;0.93;;;0.45;;
65636;SDS011;52327;42.622;23.316;2023-12-20T02:27:37;0.30;;;0.30;;
65636;SDS011;52327;42.622;23.316;2023-12-20T02:30:04;1.67;;;1.35;;
65636;SDS011;52327;42.622;23.316;2023-12-20T02:32:30;0.20;;;0.20;;
65636;SDS011;52327;42.622;23.316;2023-12-20T02:34:55;0.50;;;0.50;;
65636;SDS011;52327;42.622;23.316;2023-12-20T02:37:21;0.45;;;0.40;;
65636;SDS011;52327;42.622;23.316;2023-12-20T02:39:47;4.57;;;1.55;;
65636;SDS011;52327;42.622;23.316;2023-12-20T02:42:12;0.17;;;0.17;;
65636;SDS011;52327;42.622;23.316;2023-12-20T02:44:38;0.45;;;0.45;;
65636;SDS011;52327;42.622;23.316;2023-12-20T02:47:03;0.20;;;0.20;;
65636;SDS011;52327;42.622;23.316;2023-12-20T02:49:29;0.63;;;0.63;;
65636;SDS011;52327;42.622;23.316;2023-12-20T02:51:54;0.57;;;0.57;;
65636;SDS011;52327;42.622;23.316;2023-12-20T02:54:19;0.38;;;0.38;;
65636;SDS011;52327;42.622;23.316;2023-12-20T02:56:45;0.22;;;0.22;;
65636;SDS011;52327;42.622;23.316;2023-12-20T02:59:10;0.43;;;0.43;;
65636;SDS011;52327;42.622;23.316;2023-12-20T03:01:41;0.40;;;0.40;;
65636;SDS011;52327;42.622;23.316;2023-12-20T03:04:10;0.30;;;0.30;;
65636;SDS011;52327;42.622;23.316;2023-12-20T03:06:44;0.38;;;0.38;;
65636;SDS011;52327;42.622;23.316;2023-12-20T03:09:10;0.30;;;0.30;;
65636;SDS011;52327;42.622;23.316;2023-12-20T03:11:35;0.35;;;0.35;;
65636;SDS011;52327;42.622;23.316;2023-12-20T03:14:01;0.30;;;0.30;;
65636;SDS011;52327;42.622;23.316;2023-12-20T03:16:29;0.17;;;0.17;;
65636;SDS011;52327;42.622;23.316;2023-12-20T03:18:56;0.80;;;0.77;;
65636;SDS011;52327;42.622;23.316;2023-12-20T03:21:21;0.30;;;0.30;;
65636;SDS011;52327;42.622;23.316;2023-12-20T03:23:47;0.70;;;0.70;;
65636;SDS011;52327;42.622;23.316;2023-12-20T03:26:13;0.90;;;0.90;;
65636;SDS011;52327;42.622;23.316;2023-12-20T03:28:39;0.73;;;0.55;;
65636;SDS011;52327;42.622;23.316;2023-12-20T03:31:04;0.60;;;0.60;;
65636;SDS011;52327;42.622;23.316;2023-12-20T03:33:30;0.32;;;0.32;;
65636;SDS011;52327;42.622;23.316;2023-12-20T03:35:55;0.20;;;0.20;;
65636;SDS011;52327;42.622;23.316;2023-12-20T03:38:21;0.55;;;0.55;;
65636;SDS011;52327;42.622;23.316;2023-12-20T03:40:49;3.78;;;1.15;;
65636;SDS011;52327;42.622;23.316;2023-12-20T03:43:14;1.52;;;0.73;;
65636;SDS011;52327;42.622;23.316;2023-12-20T03:45:40;0.40;;;0.40;;
65636;SDS011;52327;42.622;23.316;2023-12-20T03:48:06;0.63;;;0.63;;
65636;SDS011;52327;42.622;23.316;2023-12-20T03:50:33;0.40;;;0.40;;
65636;SDS011;52327;42.622;23.316;2023-12-20T03:52:59;0.60;;;0.60;;
65636;SDS011;52327;42.622;23.316;2023-12-20T03:55:24;0.65;;;0.52;;
65636;SDS011;52327;42.622;23.316;2023-12-20T03:57:50;0.55;;;0.55;;
65636;SDS011;52327;42.622;23.316;2023-12-20T04:00:15;1.85;;;0.90;;
65636;SDS011;52327;42.622;23.316;2023-12-20T04:02:41;0.63;;;0.63;;
65636;SDS011;52327;42.622;23.316;2023-12-20T04:05:07;0.90;;;0.90;;
65636;SDS011;52327;42.622;23.316;2023-12-20T04:07:35;0.80;;;0.80;;
65636;SDS011;52327;42.622;23.316;2023-12-20T04:10:01;0.40;;;0.40;;
65636;SDS011;52327;42.622;23.316;2023-12-20T04:12:28;0.98;;;0.77;;
65636;SDS011;52327;42.622;23.316;2023-12-20T04:14:54;0.60;;;0.60;;
65636;SDS011;52327;42.622;23.316;2023-12-20T04:17:22;1.17;;;1.00;;
65636;SDS011;52327;42.622;23.316;2023-12-20T04:19:54;2.83;;;0.90;;
65636;SDS011;52327;42.622;23.316;2023-12-20T04:22:22;0.73;;;0.70;;
65636;SDS011;52327;42.622;23.316;2023-12-20T04:24:50;0.80;;;0.80;;
65636;SDS011;52327;42.622;23.316;2023-12-20T04:27:24;0.95;;;0.93;;
65636;SDS011;52327;42.622;23.316;2023-12-20T04:29:50;0.85;;;0.70;;
65636;SDS011;52327;42.622;23.316;2023-12-20T04:32:15;0.52;;;0.52;;
65636;SDS011;52327;42.622;23.316;2023-12-20T04:34:43;1.17;;;0.63;;
65636;SDS011;52327;42.622;23.316;2023-12-20T04:37:08;1.40;;;1.13;;
65636;SDS011;52327;42.622;23.316;2023-12-20T04:39:34;0.65;;;0.65;;
65636;SDS011;52327;42.622;23.316;2023-12-20T04:41:59;1.92;;;1.70;;
65636;SDS011;52327;42.622;23.316;2023-12-20T04:44:25;0.63;;;0.63;;
65636;SDS011;52327;42.622;23.316;2023-12-20T04:46:54;1.50;;;1.40;;
65636;SDS011;52327;42.622;23.316;2023-12-20T04:49:21;1.00;;;1.00;;
65636;SDS011;52327;42.622;23.316;2023-12-20T04:51:47;2.13;;;0.77;;
65636;SDS011;52327;42.622;23.316;2023-12-20T04:54:12;2.10;;;1.35;;
65636;SDS011;52327;42.622;23.316;2023-12-20T04:56:38;0.90;;;0.90;;
65636;SDS011;52327;42.622;23.316;2023-12-20T04:59:04;1.33;;;0.98;;
65636;SDS011;52327;42.622;23.316;2023-12-20T05:01:29;0.40;;;0.40;;
65636;SDS011;52327;42.622;23.316;2023-12-20T05:03:55;0.63;;;0.63;;
65636;SDS011;52327;42.622;23.316;2023-12-20T05:06:20;0.50;;;0.50;;
65636;SDS011;52327;42.622;23.316;2023-12-20T05:08:45;1.85;;;0.85;;
65636;SDS011;52327;42.622;23.316;2023-12-20T05:11:11;0.43;;;0.43;;
65636;SDS011;52327;42.622;23.316;2023-12-20T05:13:39;0.30;;;0.30;;
65636;SDS011;52327;42.622;23.316;2023-12-20T05:16:04;0.20;;;0.20;;
65636;SDS011;52327;42.622;23.316;2023-12-20T05:18:30;0.98;;;0.88;;
65636;SDS011;52327;42.622;23.316;2023-12-20T05:20:56;0.47;;;0.47;;
65636;SDS011;52327;42.622;23.316;2023-12-20T05:23:21;0.73;;;0.73;;
65636;SDS011;52327;42.622;23.316;2023-12-20T05:25:47;0.40;;;0.40;;
65636;SDS011;52327;42.622;23.316;2023-12-20T05:28:12;0.40;;;0.40;;
65636;SDS011;52327;42.622;23.316;2023-12-20T05:30:38;4.45;;;0.98;;
65636;SDS011;52327;42.622;23.316;2023-12-20T05:33:03;0.90;;;0.90;;
65636;SDS011;52327;42.622;23.316;2023-12-20T05:35:29;0.30;;;0.30;;
65636;SDS011;52327;42.622;23.316;2023-12-20T05:37:54;1.02;;;1.00;;
65636;SDS011;52327;42.622;23.316;2023-12-20T05:40:20;0.38;;;0.38;;
65636;SDS011;52327;42.622;23.316;2023-12-20T05:42:45;1.35;;;0.75;;
65636;SDS011;52327;42.622;23.316;2023-12-20T05:45:11;7.53;;;4.95;;
65636;SDS011;52327;42.622;23.316;2023-12-20T05:47:36;3.00;;;2.72;;
65636;SDS011;52327;42.622;23.316;2023-12-20T05:50:02;5.93;;;2.50;;
65636;SDS011;52327;42.622;23.316;2023-12-20T05:52:27;2.00;;;1.90;;
65636;SDS011;52327;42.622;23.316;2023-12-20T05:54:53;1.63;;;1.52;;
65636;SDS011;52327;42.622;23.316;2023-12-20T05:57:18;2.40;;;2.20;;
65636;SDS011;52327;42.622;23.316;2023-12-20T05:59:43;1.63;;;1.52;;
65636;SDS011;52327;42.622;23.316;2023-12-20T06:02:09;1.60;;;1.50;;
65636;SDS011;52327;42.622;23.316;2023-12-20T06:04:34;1.38;;;1.30;;
65636;SDS011;52327;42.622;23.316;2023-12-20T06:07:00;1.83;;;1.25;;
65636;SDS011;52327;42.622;23.316;2023-12-20T06:09:28;1.13;;;1.13;;
65636;SDS011;52327;42.622;23.316;2023-12-20T06:11:53;0.52;;;0.52;;
65636;SDS011;52327;42.622;23.316;2023-12-20T06:14:19;2.50;;;1.42;;
65636;SDS011;52327;42.622;23.316;2023-12-20T06:16:45;0.98;;;0.93;;
65636;SDS011;52327;42.622;23.316;2023-12-20T06:19:10;1.33;;;1.15;;
65636;SDS011;52327;42.622;23.316;2023-12-20T06:21:36;2.13;;;1.17;;
65636;SDS011;52327;42.622;23.316;2023-12-20T06:24:01;0.98;;;0.98;;
65636;SDS011;52327;42.622;23.316;2023-12-20T06:26:26;3.90;;;2.20;;
65636;SDS011;52327;42.622;23.316;2023-12-20T06:28:52;4.80;;;4.00;;
65636;SDS011;52327;42.622;23.316;2023-12-20T06:31:17;2.30;;;1.98;;
65636;SDS011;52327;42.622;23.316;2023-12-20T06:33:43;3.65;;;2.10;;
65636;SDS011;52327;42.622;23.316;2023-12-20T06:36:12;3.50;;;2.90;;
65636;SDS011;52327;42.622;23.316;2023-12-20T06:38:41;5.10;;;2.30;;
65636;SDS011;52327;42.622;23.316;2023-12-20T06:41:07;2.40;;;1.83;;
65636;SDS011;52327;42.622;23.316;2023-12-20T06:43:32;2.92;;;2.55;;
65636;SDS011;52327;42.622;23.316;2023-12-20T06:46:00;2.38;;;2.13;;
65636;SDS011;52327;42.622;23.316;2023-12-20T06:48:25;5.78;;;4.53;;
65636;SDS011;52327;42.622;23.316;2023-12-20T06:50:50;3.55;;;3.22;;
65636;SDS011;52327;42.622;23.316;2023-12-20T06:53:16;3.15;;;2.85;;
65636;SDS011;52327;42.622;23.316;2023-12-20T06:55:41;2.35;;;2.13;;
65636;SDS011;52327;42.622;23.316;2023-12-20T06:58:07;2.78;;;2.58;;
65636;SDS011;52327;42.622;23.316;2023-12-20T07:00:33;3.85;;;2.85;;
65636;SDS011;52327;42.622;23.316;2023-12-20T07:02:59;5.47;;;4.35;;
65636;SDS011;52327;42.622;23.316;2023-12-20T07:05:24;3.15;;;2.38;;
65636;SDS011;52327;42.622;23.316;2023-12-20T07:07:50;6.57;;;5.72;;
65636;SDS011;52327;42.622;23.316;2023-12-20T07:10:15;10.13;;;4.50;;
65636;SDS011;52327;42.622;23.316;2023-12-20T07:12:41;6.28;;;3.70;;
65636;SDS011;52327;42.622;23.316;2023-12-20T07:15:06;5.97;;;2.58;;
65636;SDS011;52327;42.622;23.316;2023-12-20T07:17:32;5.38;;;3.60;;
65636;SDS011;52327;42.622;23.316;2023-12-20T07:19:58;4.13;;;3.78;;
65636;SDS011;52327;42.622;23.316;2023-12-20T07:22:28;8.57;;;4.30;;
65636;SDS011;52327;42.622;23.316;2023-12-20T07:24:54;5.70;;;3.67;;
65636;SDS011;52327;42.622;23.316;2023-12-20T07:27:19;4.93;;;3.20;;
65636;SDS011;52327;42.622;23.316;2023-12-20T07:29:45;7.72;;;4.43;;
65636;SDS011;52327;42.622;23.316;2023-12-20T07:32:10;9.85;;;5.35;;
65636;SDS011;52327;42.622;23.316;2023-12-20T07:34:35;5.40;;;4.90;;
65636;SDS011;52327;42.622;23.316;2023-12-20T07:37:01;7.22;;;5.28;;
65636;SDS011;52327;42.622;23.316;2023-12-20T07:39:26;7.88;;;5.70;;
65636;SDS011;52327;42.622;23.316;2023-12-20T07:41:52;7.43;;;6.05;;
65636;SDS011;52327;42.622;23.316;2023-12-20T07:44:17;8.77;;;6.63;;
65636;SDS011;52327;42.622;23.316;2023-12-20T07:46:42;6.68;;;5.38;;
65636;SDS011;52327;42.622;23.316;2023-12-20T07:49:08;26.20;;;6.72;;
65636;SDS011;52327;42.622;23.316;2023-12-20T07:51:33;6.70;;;5.38;;
65636;SDS011;52327;42.622;23.316;2023-12-20T07:53:59;12.52;;;7.13;;
65636;SDS011;52327;42.622;23.316;2023-12-20T07:56:24;8.80;;;7.70;;
65636;SDS011;52327;42.622;23.316;2023-12-20T07:58:50;11.02;;;8.00;;
65636;SDS011;52327;42.622;23.316;2023-12-20T08:01:15;7.85;;;6.53;;
65636;SDS011;52327;42.622;23.316;2023-12-20T08:03:41;7.55;;;6.25;;
65636;SDS011;52327;42.622;23.316;2023-12-20T08:06:06;7.72;;;6.72;;
65636;SDS011;52327;42.622;23.316;2023-12-20T08:08:32;12.85;;;7.38;;
65636;SDS011;52327;42.622;23.316;2023-12-20T08:10:57;9.50;;;5.18;;
65636;SDS011;52327;42.622;23.316;2023-12-20T08:13:25;11.45;;;7.55;;
65636;SDS011;52327;42.622;23.316;2023-12-20T08:15:51;6.90;;;6.30;;
65636;SDS011;52327;42.622;23.316;2023-12-20T08:18:19;8.82;;;7.70;;
65636;SDS011;52327;42.622;23.316;2023-12-20T08:20:48;8.93;;;6.20;;
65636;SDS011;52327;42.622;23.316;2023-12-20T08:23:13;6.88;;;5.80;;
65636;SDS011;52327;42.622;23.316;2023-12-20T08:25:39;11.80;;;6.97;;
65636;SDS011;52327;42.622;23.316;2023-12-20T08:28:04;8.80;;;6.97;;
65636;SDS011;52327;42.622;23.316;2023-12-20T08:30:30;9.73;;;7.25;;
65636;SDS011;52327;42.622;23.316;2023-12-20T08:32:56;14.93;;;7.10;;
65636;SDS011;52327;42.622;23.316;2023-12-20T08:35:21;10.02;;;7.30;;
65636;SDS011;52327;42.622;23.316;2023-12-20T08:37:47;7.25;;;5.10;;
65636;SDS011;52327;42.622;23.316;2023-12-20T08:40:12;15.38;;;8.13;;
65636;SDS011;52327;42.622;23.316;2023-12-20T08:42:38;14.30;;;7.82;;
65636;SDS011;52327;42.622;23.316;2023-12-20T08:45:04;9.25;;;7.32;;
65636;SDS011;52327;42.622;23.316;2023-12-20T08:47:29;12.15;;;10.40;;
65636;SDS011;52327;42.622;23.316;2023-12-20T08:49:55;15.85;;;10.30;;
65636;SDS011;52327;42.622;23.316;2023-12-20T08:52:23;10.43;;;9.30;;
65636;SDS011;52327;42.622;23.316;2023-12-20T08:54:49;14.65;;;10.65;;
65636;SDS011;52327;42.622;23.316;2023-12-20T08:57:17;14.30;;;9.82;;
65636;SDS011;52327;42.622;23.316;2023-12-20T08:59:44;11.32;;;10.20;;
65636;SDS011;52327;42.622;23.316;2023-12-20T09:02:10;19.15;;;10.50;;
65636;SDS011;52327;42.622;23.316;2023-12-20T09:04:35;21.48;;;13.68;;
65636;SDS011;52327;42.622;23.316;2023-12-20T09:07:00;18.58;;;13.52;;
65636;SDS011;52327;42.622;23.316;2023-12-20T09:09:26;18.73;;;12.82;;
65636;SDS011;52327;42.622;23.316;2023-12-20T09:11:51;22.02;;;12.30;;
65636;SDS011;52327;42.622;23.316;2023-12-20T09:14:17;22.38;;;11.52;;
65636;SDS011;52327;42.622;23.316;2023-12-20T09:16:42;16.30;;;12.73;;
65636;SDS011;52327;42.622;23.316;2023-12-20T09:19:08;23.05;;;13.65;;
65636;SDS011;52327;42.622;23.316;2023-12-20T09:21:33;15.15;;;11.27;;
65636;SDS011;52327;42.622;23.316;2023-12-20T09:23:58;12.35;;;10.85;;
65636;SDS011;52327;42.622;23.316;2023-12-20T09:26:24;17.70;;;11.77;;
65636;SDS011;52327;42.622;23.316;2023-12-20T09:28:49;26.27;;;13.52;;
65636;SDS011;52327;42.622;23.316;2023-12-20T09:31:14;18.52;;;13.88;;
65636;SDS011;52327;42.622;23.316;2023-12-20T09:33:40;36.35;;;19.05;;
65636;SDS011;52327;42.622;23.316;2023-12-20T09:36:05;23.67;;;13.20;;
65636;SDS011;52327;42.622;23.316;2023-12-20T09:38:31;18.23;;;14.40;;
65636;SDS011;52327;42.622;23.316;2023-12-20T09:40:56;26.50;;;19.52;;
65636;SDS011;52327;42.622;23.316;2023-12-20T09:43:23;18.30;;;13.25;;
65636;SDS011;52327;42.622;23.316;2023-12-20T09:45:51;23.10;;;14.75;;
65636;SDS011;52327;42.622;23.316;2023-12-20T09:48:18;24.45;;;16.65;;
65636;SDS011;52327;42.622;23.316;2023-12-20T09:50:44;29.77;;;15.20;;
65636;SDS011;52327;42.622;23.316;2023-12-20T09:53:11;18.10;;;12.88;;
65636;SDS011;52327;42.622;23.316;2023-12-20T09:55:41;20.30;;;14.85;;
65636;SDS011;52327;42.622;23.316;2023-12-20T09:58:07;20.33;;;14.13;;
65636;SDS011;52327;42.622;23.316;2023-12-20T10:00:34;23.58;;;15.23;;
65636;SDS011;52327;42.622;23.316;2023-12-20T10:03:00;16.17;;;12.20;;
65636;SDS011;52327;42.622;23.316;2023-12-20T10:05:26;22.63;;;14.27;;
65636;SDS011;52327;42.622;23.316;2023-12-20T10:07:53;12.80;;;10.50;;
65636;SDS011;52327;42.622;23.316;2023-12-20T10:10:18;16.00;;;12.10;;
65636;SDS011;52327;42.622;23.316;2023-12-20T10:15:35;21.45;;;11.85;;
65636;SDS011;52327;42.622;23.316;2023-12-20T10:18:02;10.93;;;9.38;;
65636;SDS011;52327;42.622;23.316;2023-12-20T10:20:28;15.35;;;11.55;;
65636;SDS011;52327;42.622;23.316;2023-12-20T10:22:55;15.10;;;12.05;;
65636;SDS011;52327;42.622;23.316;2023-12-20T10:25:21;21.35;;;16.10;;
65636;SDS011;52327;42.622;23.316;2023-12-20T10:27:47;17.98;;;13.70;;
65636;SDS011;52327;42.622;23.316;2023-12-20T10:30:13;13.68;;;10.45;;
65636;SDS011;52327;42.622;23.316;2023-12-20T10:32:39;30.00;;;15.82;;
65636;SDS011;52327;42.622;23.316;2023-12-20T10:35:05;15.43;;;13.30;;
65636;SDS011;52327;42.622;23.316;2023-12-20T10:37:34;23.98;;;11.00;;
65636;SDS011;52327;42.622;23.316;2023-12-20T10:40:01;12.07;;;10.80;;
65636;SDS011;52327;42.622;23.316;2023-12-20T10:42:29;11.05;;;8.75;;
65636;SDS011;52327;42.622;23.316;2023-12-20T10:44:55;17.75;;;9.95;;
65636;SDS011;52327;42.622;23.316;2023-12-20T10:47:21;18.17;;;13.30;;
65636;SDS011;52327;42.622;23.316;2023-12-20T10:49:49;21.98;;;12.23;;
65636;SDS011;52327;42.622;23.316;2023-12-20T10:52:17;20.63;;;12.98;;
65636;SDS011;52327;42.622;23.316;2023-12-20T10:54:42;16.33;;;12.20;;
65636;SDS011;52327;42.622;23.316;2023-12-20T10:57:09;18.88;;;12.00;;
65636;SDS011;52327;42.622;23.316;2023-12-20T10:59:36;13.95;;;8.93;;
65636;SDS011;52327;42.622;23.316;2023-12-20T11:02:03;17.08;;;11.25;;
65636;SDS011;52327;42.622;23.316;2023-12-20T11:09:46;18.25;;;10.40;;
65636;SDS011;52327;42.622;23.316;2023-12-20T11:12:22;14.90;;;11.02;;
65636;SDS011;52327;42.622;23.316;2023-12-20T11:14:57;13.63;;;10.95;;
65636;SDS011;52327;42.622;23.316;2023-12-20T11:17:28;18.33;;;13.45;;
65636;SDS011;52327;42.622;23.316;2023-12-20T11:22:21;14.70;;;11.05;;
65636;SDS011;52327;42.622;23.316;2023-12-20T11:24:54;11.45;;;10.25;;
65636;SDS011;52327;42.622;23.316;2023-12-20T11:27:24;17.38;;;11.50;;
65636;SDS011;52327;42.622;23.316;2023-12-20T11:29:52;17.20;;;11.07;;
65636;SDS011;52327;42.622;23.316;2023-12-20T11:34:51;17.73;;;11.63;;
65636;SDS011;52327;42.622;23.316;2023-12-20T11:37:19;13.43;;;10.15;;
65636;SDS011;52327;42.622;23.316;2023-12-20T11:39:45;18.65;;;10.73;;
65636;SDS011;52327;42.622;23.316;2023-12-20T11:42:10;15.02;;;11.32;;
65636;SDS011;52327;42.622;23.316;2023-12-20T11:44:36;16.58;;;10.07;;
65636;SDS011;52327;42.622;23.316;2023-12-20T11:47:02;19.25;;;11.05;;
65636;SDS011;52327;42.622;23.316;2023-12-20T11:49:28;15.13;;;10.63;;
65636;SDS011;52327;42.622;23.316;2023-12-20T11:51:56;11.50;;;9.93;;
65636;SDS011;52327;42.622;23.316;2023-12-20T11:54:21;17.77;;;11.20;;
65636;SDS011;52327;42.622;23.316;2023-12-20T11:56:47;14.85;;;12.65;;
65636;SDS011;52327;42.622;23.316;2023-12-20T11:59:13;19.27;;;9.73;;
65636;SDS011;52327;42.622;23.316;2023-12-20T12:01:38;19.60;;;11.48;;
65636;SDS011;52327;42.622;23.316;2023-12-20T12:04:07;16.27;;;10.40;;
65636;SDS011;52327;42.622;23.316;2023-12-20T12:06:36;11.98;;;10.23;;
65636;SDS011;52327;42.622;23.316;2023-12-20T12:09:04;14.27;;;9.88;;
65636;SDS011;52327;42.622;23.316;2023-12-20T12:11:29;15.60;;;10.60;;
65636;SDS011;52327;42.622;23.316;2023-12-20T12:13:55;18.48;;;11.27;;
65636;SDS011;52327;42.622;23.316;2023-12-20T12:16:20;19.58;;;13.05;;
65636;SDS011;52327;42.622;23.316;2023-12-20T12:18:46;15.02;;;10.00;;
65636;SDS011;52327;42.622;23.316;2023-12-20T12:21:19;14.77;;;11.10;;
65636;SDS011;52327;42.622;23.316;2023-12-20T12:23:45;13.18;;;9.88;;
65636;SDS011;52327;42.622;23.316;2023-12-20T12:26:11;17.58;;;11.68;;
65636;SDS011;52327;42.622;23.316;2023-12-20T12:28:37;14.80;;;9.20;;
65636;SDS011;52327;42.622;23.316;2023-12-20T12:31:14;19.63;;;11.48;;
65636;SDS011;52327;42.622;23.316;2023-12-20T12:33:42;19.33;;;11.43;;
65636;SDS011;52327;42.622;23.316;2023-12-20T12:36:09;14.77;;;10.95;;
65636;SDS011;52327;42.622;23.316;2023-12-20T12:38:36;15.25;;;8.95;;
65636;SDS011;52327;42.622;23.316;2023-12-20T12:41:01;10.38;;;7.35;;
65636;SDS011;52327;42.622;23.316;2023-12-20T12:43:27;15.65;;;11.10;;
65636;SDS011;52327;42.622;23.316;2023-12-20T12:45:53;12.60;;;10.60;;
65636;SDS011;52327;42.622;23.316;2023-12-20T12:48:18;18.10;;;8.77;;
65636;SDS011;52327;42.622;23.316;2023-12-20T12:50:45;10.00;;;8.82;;
65636;SDS011;52327;42.622;23.316;2023-12-20T12:53:11;14.88;;;9.88;;
65636;SDS011;52327;42.622;23.316;2023-12-20T12:55:36;15.70;;;11.20;;
65636;SDS011;52327;42.622;23.316;2023-12-20T12:58:02;11.20;;;9.25;;
65636;SDS011;52327;42.622;23.316;2023-12-20T13:00:27;12.52;;;7.57;;
65636;SDS011;52327;42.622;23.316;2023-12-20T13:02:53;16.58;;;7.32;;
65636;SDS011;52327;42.622;23.316;2023-12-20T13:05:18;25.00;;;8.10;;
65636;SDS011;52327;42.622;23.316;2023-12-20T13:07:43;7.72;;;5.88;;
65636;SDS011;52327;42.622;23.316;2023-12-20T13:10:10;5.75;;;5.18;;
65636;SDS011;52327;42.622;23.316;2023-12-20T13:12:36;7.80;;;4.10;;
65636;SDS011;52327;42.622;23.316;2023-12-20T13:15:01;5.47;;;3.90;;
65636;SDS011;52327;42.622;23.316;2023-12-20T13:17:28;3.22;;;2.58;;
65636;SDS011;52327;42.622;23.316;2023-12-20T13:19:54;3.42;;;3.13;;
65636;SDS011;52327;42.622;23.316;2023-12-20T13:22:20;3.47;;;2.33;;
65636;SDS011;52327;42.622;23.316;2023-12-20T13:24:45;6.28;;;2.42;;
65636;SDS011;52327;42.622;23.316;2023-12-20T13:27:10;3.63;;;2.88;;
65636;SDS011;52327;42.622;23.316;2023-12-20T13:29:36;4.10;;;2.42;;
65636;SDS011;52327;42.622;23.316;2023-12-20T13:32:01;3.05;;;1.65;;
65636;SDS011;52327;42.622;23.316;2023-12-20T13:34:28;3.83;;;3.38;;
65636;SDS011;52327;42.622;23.316;2023-12-20T13:36:54;6.75;;;3.60;;
65636;SDS011;52327;42.622;23.316;2023-12-20T13:39:19;5.93;;;3.75;;
65636;SDS011;52327;42.622;23.316;2023-12-20T13:41:45;24.38;;;11.73;;
65636;SDS011;52327;42.622;23.316;2023-12-20T13:44:10;10.65;;;6.13;;
65636;SDS011;52327;42.622;23.316;2023-12-20T13:46:37;12.80;;;6.20;;
65636;SDS011;52327;42.622;23.316;2023-12-20T13:49:02;9.15;;;3.35;;
65636;SDS011;52327;42.622;23.316;2023-12-20T13:51:30;3.53;;;3.22;;
65636;SDS011;52327;42.622;23.316;2023-12-20T13:53:55;4.25;;;2.33;;
65636;SDS011;52327;42.622;23.316;2023-12-20T13:56:20;1.40;;;1.30;;
65636;SDS011;52327;42.622;23.316;2023-12-20T13:58:48;2.55;;;1.45;;
65636;SDS011;52327;42.622;23.316;2023-12-20T14:01:13;1.48;;;1.05;;
65636;SDS011;52327;42.622;23.316;2023-12-20T14:03:39;1.15;;;1.05;;
65636;SDS011;52327;42.622;23.316;2023-12-20T14:06:06;0.98;;;0.90;;
65636;SDS011;52327;42.622;23.316;2023-12-20T14:08:31;1.17;;;1.08;;
65636;SDS011;52327;42.622;23.316;2023-12-20T14:10:56;1.63;;;0.95;;
65636;SDS011;52327;42.622;23.316;2023-12-20T14:13:22;1.92;;;1.35;;
65636;SDS011;52327;42.622;23.316;2023-12-20T14:15:47;0.70;;;0.70;;
65636;SDS011;52327;42.622;23.316;2023-12-20T14:18:14;1.65;;;1.55;;
65636;SDS011;52327;42.622;23.316;2023-12-20T14:20:40;1.50;;;1.35;;
65636;SDS011;52327;42.622;23.316;2023-12-20T14:23:08;0.63;;;0.63;;
65636;SDS011;52327;42.622;23.316;2023-12-20T14:28:02;1.27;;;0.98;;
65636;SDS011;52327;42.622;23.316;2023-12-20T14:30:29;1.98;;;1.48;;
65636;SDS011;52327;42.622;23.316;2023-12-20T14:32:54;3.67;;;1.38;;
65636;SDS011;52327;42.622;23.316;2023-12-20T14:35:20;1.65;;;1.45;;
65636;SDS011;52327;42.622;23.316;2023-12-20T14:37:45;1.60;;;0.70;;